sensor_id;sensor_type;location;lat;lon;timestamp;P1;durP1;ratioP1;P2;durP2;ratioP2
15536;SDS011;7870;52.448;13.270;2023-01-20T00:00:15;18.52;;;14.88;;
15536;SDS011;7870;52.448;13.270;2023-01-20T00:02:42;19.00;;;14.32;;
15536;SDS011;7870;52.448;13.270;2023-01-20T00:05:09;19.63;;;14.52;;
15536;SDS011;7870;52.448;13.270;2023-01-20T00:07:35;20.77;;;15.23;;
15536;SDS011;7870;52.448;13.270;2023-01-20T00:10:02;18.35;;;15.10;;
15536;SDS011;7870;52.448;13.270;2023-01-20T00:12:29;22.73;;;15.35;;
15536;SDS011;7870;52.448;13.270;2023-01-20T00:14:57;21.13;;;15.40;;
15536;SDS011;7870;52.448;13.270;2023-01-20T00:17:23;19.30;;;15.38;;
15536;SDS011;7870;52.448;13.270;2023-01-20T00:19:50;22.98;;;15.27;;
15536;SDS011;7870;52.448;13.270;2023-01-20T00:22:16;20.77;;;14.52;;
15536;SDS011;7870;52.448;13.270;2023-01-20T00:24:43;20.23;;;14.57;;
15536;SDS011;7870;52.448;13.270;2023-01-20T00:27:10;19.35;;;14.45;;
15536;SDS011;7870;52.448;13.270;2023-01-20T00:29:36;23.52;;;14.48;;
15536;SDS011;7870;52.448;13.270;2023-01-20T00:32:03;21.83;;;13.82;;
15536;SDS011;7870;52.448;13.270;2023-01-20T00:34:29;20.98;;;14.60;;
15536;SDS011;7870;52.448;13.270;2023-01-20T00:36:56;21.15;;;13.60;;
15536;SDS011;7870;52.448;13.270;2023-01-20T00:39:22;24.10;;;15.60;;
15536;SDS011;7870;52.448;13.270;2023-01-20T00:41:49;23.58;;;15.93;;
15536;SDS011;7870;52.448;13.270;2023-01-20T00:44:15;25.13;;;15.55;;
15536;SDS011;7870;52.448;13.270;2023-01-20T00:46:42;23.05;;;15.30;;
15536;SDS011;7870;52.448;13.270;2023-01-20T00:49:09;23.60;;;15.50;;
15536;SDS011;7870;52.448;13.270;2023-01-20T00:51:36;23.23;;;15.75;;
15536;SDS011;7870;52.448;13.270;2023-01-20T00:54:02;24.02;;;15.43;;
15536;SDS011;7870;52.448;13.270;2023-01-20T00:56:29;24.35;;;15.45;;
15536;SDS011;7870;52.448;13.270;2023-01-20T00:58:56;22.08;;;15.77;;
15536;SDS011;7870;52.448;13.270;2023-01-20T01:01:22;23.60;;;15.48;;
15536;SDS011;7870;52.448;13.270;2023-01-20T01:03:51;19.42;;;14.75;;
15536;SDS011;7870;52.448;13.270;2023-01-20T01:06:19;20.65;;;15.43;;
15536;SDS011;7870;52.448;13.270;2023-01-20T01:08:46;22.70;;;15.55;;
15536;SDS011;7870;52.448;13.270;2023-01-20T01:11:13;22.33;;;14.95;;
15536;SDS011;7870;52.448;13.270;2023-01-20T01:13:40;18.83;;;15.02;;
15536;SDS011;7870;52.448;13.270;2023-01-20T01:16:10;30.02;;;15.90;;
15536;SDS011;7870;52.448;13.270;2023-01-20T01:18:38;21.25;;;15.00;;
15536;SDS011;7870;52.448;13.270;2023-01-20T01:21:05;25.38;;;15.35;;
15536;SDS011;7870;52.448;13.270;2023-01-20T01:23:33;20.50;;;14.77;;
15536;SDS011;7870;52.448;13.270;2023-01-20T01:25:59;24.50;;;14.48;;
15536;SDS011;7870;52.448;13.270;2023-01-20T01:28:26;18.75;;;14.35;;
15536;SDS011;7870;52.448;13.270;2023-01-20T01:30:53;21.35;;;13.70;;
15536;SDS011;7870;52.448;13.270;2023-01-20T01:33:19;17.45;;;13.55;;
15536;SDS011;7870;52.448;13.270;2023-01-20T01:35:59;21.95;;;14.25;;
15536;SDS011;7870;52.448;13.270;2023-01-20T01:38:27;21.92;;;13.80;;
15536;SDS011;7870;52.448;13.270;2023-01-20T01:40:54;22.58;;;13.52;;
15536;SDS011;7870;52.448;13.270;2023-01-20T01:43:28;18.17;;;12.43;;
15536;SDS011;7870;52.448;13.270;2023-01-20T01:45:59;18.77;;;13.52;;
15536;SDS011;7870;52.448;13.270;2023-01-20T01:48:30;20.45;;;14.15;;
15536;SDS011;7870;52.448;13.270;2023-01-20T01:51:04;21.42;;;13.27;;
15536;SDS011;7870;52.448;13.270;2023-01-20T01:53:44;21.65;;;13.48;;
15536;SDS011;7870;52.448;13.270;2023-01-20T01:56:13;21.17;;;14.35;;
15536;SDS011;7870;52.448;13.270;2023-01-20T01:58:42;22.50;;;14.07;;
15536;SDS011;7870;52.448;13.270;2023-01-20T02:01:11;20.33;;;12.95;;
15536;SDS011;7870;52.448;13.270;2023-01-20T02:04:12;20.08;;;14.95;;
15536;SDS011;7870;52.448;13.270;2023-01-20T02:06:42;20.90;;;13.80;;
15536;SDS011;7870;52.448;13.270;2023-01-20T02:09:11;21.00;;;14.25;;
15536;SDS011;7870;52.448;13.270;2023-01-20T02:11:39;19.13;;;12.38;;
15536;SDS011;7870;52.448;13.270;2023-01-20T02:14:09;22.35;;;14.10;;
15536;SDS011;7870;52.448;13.270;2023-01-20T02:30:04;22.27;;;14.05;;
15536;SDS011;7870;52.448;13.270;2023-01-20T02:40:46;20.40;;;15.65;;
15536;SDS011;7870;52.448;13.270;2023-01-20T02:46:15;23.25;;;16.75;;
15536;SDS011;7870;52.448;13.270;2023-01-20T02:48:48;23.02;;;15.32;;
15536;SDS011;7870;52.448;13.270;2023-01-20T02:51:31;25.67;;;16.40;;
15536;SDS011;7870;52.448;13.270;2023-01-20T02:54:01;24.90;;;16.80;;
15536;SDS011;7870;52.448;13.270;2023-01-20T02:56:31;24.75;;;17.73;;
15536;SDS011;7870;52.448;13.270;2023-01-20T02:59:12;25.80;;;17.45;;
15536;SDS011;7870;52.448;13.270;2023-01-20T03:01:41;25.02;;;17.58;;
15536;SDS011;7870;52.448;13.270;2023-01-20T03:04:12;24.17;;;17.80;;
15536;SDS011;7870;52.448;13.270;2023-01-20T03:06:45;24.05;;;18.95;;
15536;SDS011;7870;52.448;13.270;2023-01-20T03:09:16;26.33;;;18.67;;
15536;SDS011;7870;52.448;13.270;2023-01-20T03:11:45;28.27;;;19.02;;
15536;SDS011;7870;52.448;13.270;2023-01-20T03:14:16;25.38;;;18.65;;
15536;SDS011;7870;52.448;13.270;2023-01-20T03:16:43;25.05;;;17.13;;
15536;SDS011;7870;52.448;13.270;2023-01-20T03:19:13;23.25;;;18.38;;
15536;SDS011;7870;52.448;13.270;2023-01-20T03:21:40;26.08;;;19.30;;
15536;SDS011;7870;52.448;13.270;2023-01-20T03:24:07;28.00;;;18.50;;
15536;SDS011;7870;52.448;13.270;2023-01-20T03:26:34;28.45;;;18.92;;
15536;SDS011;7870;52.448;13.270;2023-01-20T03:29:07;27.67;;;18.58;;
15536;SDS011;7870;52.448;13.270;2023-01-20T03:31:40;29.05;;;19.33;;
15536;SDS011;7870;52.448;13.270;2023-01-20T03:34:16;27.90;;;19.50;;
15536;SDS011;7870;52.448;13.270;2023-01-20T03:36:45;31.15;;;18.10;;
15536;SDS011;7870;52.448;13.270;2023-01-20T03:39:12;27.88;;;19.98;;
15536;SDS011;7870;52.448;13.270;2023-01-20T03:44:32;29.40;;;20.65;;
15536;SDS011;7870;52.448;13.270;2023-01-20T03:47:33;33.42;;;19.90;;
15536;SDS011;7870;52.448;13.270;2023-01-20T03:55:45;31.38;;;21.48;;
15536;SDS011;7870;52.448;13.270;2023-01-20T03:58:16;30.25;;;21.30;;
15536;SDS011;7870;52.448;13.270;2023-01-20T04:00:46;36.42;;;21.42;;
15536;SDS011;7870;52.448;13.270;2023-01-20T04:03:17;45.90;;;25.73;;
15536;SDS011;7870;52.448;13.270;2023-01-20T04:05:46;34.70;;;24.00;;
15536;SDS011;7870;52.448;13.270;2023-01-20T04:08:14;31.80;;;23.15;;
15536;SDS011;7870;52.448;13.270;2023-01-20T04:10:42;30.90;;;21.52;;
15536;SDS011;7870;52.448;13.270;2023-01-20T04:13:10;33.42;;;23.85;;
15536;SDS011;7870;52.448;13.270;2023-01-20T04:15:39;33.70;;;23.35;;
15536;SDS011;7870;52.448;13.270;2023-01-20T04:18:10;36.15;;;25.17;;
15536;SDS011;7870;52.448;13.270;2023-01-20T04:20:37;36.53;;;24.08;;
15536;SDS011;7870;52.448;13.270;2023-01-20T04:23:04;31.30;;;24.27;;
15536;SDS011;7870;52.448;13.270;2023-01-20T04:25:31;33.92;;;24.15;;
15536;SDS011;7870;52.448;13.270;2023-01-20T04:27:58;34.33;;;25.23;;
15536;SDS011;7870;52.448;13.270;2023-01-20T04:30:25;39.60;;;25.70;;
15536;SDS011;7870;52.448;13.270;2023-01-20T04:32:52;34.47;;;25.58;;
15536;SDS011;7870;52.448;13.270;2023-01-20T04:35:18;41.25;;;27.38;;
15536;SDS011;7870;52.448;13.270;2023-01-20T04:37:45;34.63;;;25.35;;
15536;SDS011;7870;52.448;13.270;2023-01-20T04:40:12;33.88;;;25.83;;
15536;SDS011;7870;52.448;13.270;2023-01-20T04:42:39;35.60;;;24.52;;
15536;SDS011;7870;52.448;13.270;2023-01-20T04:45:05;32.90;;;24.23;;
15536;SDS011;7870;52.448;13.270;2023-01-20T04:47:32;32.55;;;24.20;;
15536;SDS011;7870;52.448;13.270;2023-01-20T04:49:59;41.40;;;25.58;;
15536;SDS011;7870;52.448;13.270;2023-01-20T04:52:25;35.40;;;24.13;;
15536;SDS011;7870;52.448;13.270;2023-01-20T04:54:52;37.42;;;25.15;;
15536;SDS011;7870;52.448;13.270;2023-01-20T04:57:19;33.53;;;24.13;;
15536;SDS011;7870;52.448;13.270;2023-01-20T04:59:46;32.30;;;22.20;;
15536;SDS011;7870;52.448;13.270;2023-01-20T05:02:12;31.75;;;22.13;;
15536;SDS011;7870;52.448;13.270;2023-01-20T05:04:39;35.03;;;23.77;;
15536;SDS011;7870;52.448;13.270;2023-01-20T05:07:05;32.22;;;23.77;;
15536;SDS011;7870;52.448;13.270;2023-01-20T05:09:32;34.47;;;24.70;;
15536;SDS011;7870;52.448;13.270;2023-01-20T05:11:59;38.67;;;24.95;;
15536;SDS011;7870;52.448;13.270;2023-01-20T05:14:25;31.45;;;23.52;;
15536;SDS011;7870;52.448;13.270;2023-01-20T05:16:52;38.00;;;25.23;;
15536;SDS011;7870;52.448;13.270;2023-01-20T05:19:18;42.63;;;26.65;;
15536;SDS011;7870;52.448;13.270;2023-01-20T05:21:45;42.42;;;27.92;;
15536;SDS011;7870;52.448;13.270;2023-01-20T05:24:11;38.72;;;26.27;;
15536;SDS011;7870;52.448;13.270;2023-01-20T05:26:38;38.08;;;25.75;;
15536;SDS011;7870;52.448;13.270;2023-01-20T05:29:05;37.20;;;25.98;;
15536;SDS011;7870;52.448;13.270;2023-01-20T05:31:31;33.83;;;24.63;;
15536;SDS011;7870;52.448;13.270;2023-01-20T05:33:58;33.63;;;24.25;;
15536;SDS011;7870;52.448;13.270;2023-01-20T05:36:25;35.80;;;25.10;;
15536;SDS011;7870;52.448;13.270;2023-01-20T05:38:53;35.95;;;24.10;;
15536;SDS011;7870;52.448;13.270;2023-01-20T05:41:20;34.60;;;23.27;;
15536;SDS011;7870;52.448;13.270;2023-01-20T05:43:47;33.42;;;24.05;;
15536;SDS011;7870;52.448;13.270;2023-01-20T05:46:14;33.28;;;25.65;;
15536;SDS011;7870;52.448;13.270;2023-01-20T05:48:40;31.33;;;23.88;;
15536;SDS011;7870;52.448;13.270;2023-01-20T05:51:07;34.92;;;26.60;;
15536;SDS011;7870;52.448;13.270;2023-01-20T05:53:34;33.25;;;24.00;;
15536;SDS011;7870;52.448;13.270;2023-01-20T05:56:00;37.55;;;24.42;;
15536;SDS011;7870;52.448;13.270;2023-01-20T05:58:28;40.33;;;27.45;;
15536;SDS011;7870;52.448;13.270;2023-01-20T06:01:02;34.92;;;24.88;;
15536;SDS011;7870;52.448;13.270;2023-01-20T06:03:32;34.97;;;26.00;;
15536;SDS011;7870;52.448;13.270;2023-01-20T06:06:00;37.08;;;26.55;;
15536;SDS011;7870;52.448;13.270;2023-01-20T06:08:27;38.53;;;27.25;;
15536;SDS011;7870;52.448;13.270;2023-01-20T06:10:54;40.17;;;27.85;;
15536;SDS011;7870;52.448;13.270;2023-01-20T06:13:21;42.65;;;26.55;;
15536;SDS011;7870;52.448;13.270;2023-01-20T06:15:51;37.60;;;26.48;;
15536;SDS011;7870;52.448;13.270;2023-01-20T06:20:46;38.88;;;25.60;;
15536;SDS011;7870;52.448;13.270;2023-01-20T06:23:13;39.63;;;29.05;;
15536;SDS011;7870;52.448;13.270;2023-01-20T06:25:40;47.45;;;29.75;;
15536;SDS011;7870;52.448;13.270;2023-01-20T06:28:07;47.55;;;28.58;;
15536;SDS011;7870;52.448;13.270;2023-01-20T06:30:34;43.28;;;29.65;;
15536;SDS011;7870;52.448;13.270;2023-01-20T06:33:00;45.05;;;29.45;;
15536;SDS011;7870;52.448;13.270;2023-01-20T06:35:27;49.60;;;30.85;;
15536;SDS011;7870;52.448;13.270;2023-01-20T06:37:56;40.30;;;28.83;;
15536;SDS011;7870;52.448;13.270;2023-01-20T06:40:23;44.88;;;31.27;;
15536;SDS011;7870;52.448;13.270;2023-01-20T06:42:50;42.55;;;27.30;;
15536;SDS011;7870;52.448;13.270;2023-01-20T06:45:16;43.63;;;27.75;;
15536;SDS011;7870;52.448;13.270;2023-01-20T06:47:46;42.15;;;29.40;;
15536;SDS011;7870;52.448;13.270;2023-01-20T06:50:14;46.70;;;31.23;;
15536;SDS011;7870;52.448;13.270;2023-01-20T06:52:41;47.92;;;31.17;;
15536;SDS011;7870;52.448;13.270;2023-01-20T06:55:08;43.17;;;29.38;;
15536;SDS011;7870;52.448;13.270;2023-01-20T06:57:34;39.78;;;26.75;;
15536;SDS011;7870;52.448;13.270;2023-01-20T07:00:01;39.47;;;26.90;;
15536;SDS011;7870;52.448;13.270;2023-01-20T07:02:28;40.72;;;28.30;;
15536;SDS011;7870;52.448;13.270;2023-01-20T07:04:55;48.28;;;29.90;;
15536;SDS011;7870;52.448;13.270;2023-01-20T07:07:22;44.88;;;29.40;;
15536;SDS011;7870;52.448;13.270;2023-01-20T07:09:48;46.20;;;29.70;;
15536;SDS011;7870;52.448;13.270;2023-01-20T07:12:17;44.83;;;29.02;;
15536;SDS011;7870;52.448;13.270;2023-01-20T07:14:43;46.05;;;28.42;;
15536;SDS011;7870;52.448;13.270;2023-01-20T07:17:10;50.53;;;30.27;;
15536;SDS011;7870;52.448;13.270;2023-01-20T07:19:37;54.60;;;32.42;;
15536;SDS011;7870;52.448;13.270;2023-01-20T07:22:04;49.75;;;32.72;;
15536;SDS011;7870;52.448;13.270;2023-01-20T07:24:45;49.45;;;32.10;;
15536;SDS011;7870;52.448;13.270;2023-01-20T07:27:12;52.45;;;31.30;;
15536;SDS011;7870;52.448;13.270;2023-01-20T07:29:40;58.45;;;34.95;;
15536;SDS011;7870;52.448;13.270;2023-01-20T07:32:07;48.95;;;32.47;;
15536;SDS011;7870;52.448;13.270;2023-01-20T07:34:33;49.88;;;33.58;;
15536;SDS011;7870;52.448;13.270;2023-01-20T07:37:00;63.05;;;36.58;;
15536;SDS011;7870;52.448;13.270;2023-01-20T07:39:27;50.40;;;31.52;;
15536;SDS011;7870;52.448;13.270;2023-01-20T07:41:54;56.58;;;34.80;;
15536;SDS011;7870;52.448;13.270;2023-01-20T07:44:20;55.08;;;34.03;;
15536;SDS011;7870;52.448;13.270;2023-01-20T07:46:47;50.03;;;31.75;;
15536;SDS011;7870;52.448;13.270;2023-01-20T07:49:13;56.47;;;33.22;;
15536;SDS011;7870;52.448;13.270;2023-01-20T07:51:40;53.92;;;33.65;;
15536;SDS011;7870;52.448;13.270;2023-01-20T07:54:09;50.03;;;32.10;;
15536;SDS011;7870;52.448;13.270;2023-01-20T07:56:36;55.58;;;34.08;;
15536;SDS011;7870;52.448;13.270;2023-01-20T07:59:03;51.60;;;33.85;;
15536;SDS011;7870;52.448;13.270;2023-01-20T08:01:30;53.53;;;33.55;;
15536;SDS011;7870;52.448;13.270;2023-01-20T08:03:58;53.58;;;33.15;;
15536;SDS011;7870;52.448;13.270;2023-01-20T08:06:27;50.60;;;34.13;;
15536;SDS011;7870;52.448;13.270;2023-01-20T08:08:55;59.50;;;34.10;;
15536;SDS011;7870;52.448;13.270;2023-01-20T08:11:25;55.85;;;30.52;;
15536;SDS011;7870;52.448;13.270;2023-01-20T08:13:51;55.47;;;33.80;;
15536;SDS011;7870;52.448;13.270;2023-01-20T08:16:18;55.67;;;33.33;;
15536;SDS011;7870;52.448;13.270;2023-01-20T08:18:45;55.83;;;33.22;;
15536;SDS011;7870;52.448;13.270;2023-01-20T08:21:17;55.08;;;32.80;;
15536;SDS011;7870;52.448;13.270;2023-01-20T08:23:54;49.65;;;33.90;;
15536;SDS011;7870;52.448;13.270;2023-01-20T08:26:21;55.22;;;33.63;;
15536;SDS011;7870;52.448;13.270;2023-01-20T08:28:50;46.90;;;31.98;;
15536;SDS011;7870;52.448;13.270;2023-01-20T08:31:19;51.70;;;32.95;;
15536;SDS011;7870;52.448;13.270;2023-01-20T08:33:46;51.20;;;33.60;;
15536;SDS011;7870;52.448;13.270;2023-01-20T08:36:14;46.25;;;33.17;;
15536;SDS011;7870;52.448;13.270;2023-01-20T08:38:42;52.50;;;32.85;;
15536;SDS011;7870;52.448;13.270;2023-01-20T08:41:10;47.58;;;31.73;;
15536;SDS011;7870;52.448;13.270;2023-01-20T08:43:45;46.42;;;30.45;;
15536;SDS011;7870;52.448;13.270;2023-01-20T08:46:13;41.08;;;30.15;;
15536;SDS011;7870;52.448;13.270;2023-01-20T08:48:41;43.83;;;30.85;;
15536;SDS011;7870;52.448;13.270;2023-01-20T08:51:09;43.15;;;30.52;;
15536;SDS011;7870;52.448;13.270;2023-01-20T08:53:39;48.72;;;31.83;;
15536;SDS011;7870;52.448;13.270;2023-01-20T08:56:07;50.90;;;31.77;;
15536;SDS011;7870;52.448;13.270;2023-01-20T08:58:34;49.55;;;31.00;;
15536;SDS011;7870;52.448;13.270;2023-01-20T09:01:00;40.90;;;30.45;;
15536;SDS011;7870;52.448;13.270;2023-01-20T09:03:27;45.83;;;32.47;;
15536;SDS011;7870;52.448;13.270;2023-01-20T09:05:54;46.40;;;31.40;;
15536;SDS011;7870;52.448;13.270;2023-01-20T09:08:20;49.97;;;31.60;;
15536;SDS011;7870;52.448;13.270;2023-01-20T09:10:47;42.78;;;31.10;;
15536;SDS011;7870;52.448;13.270;2023-01-20T09:13:14;49.10;;;32.33;;
15536;SDS011;7870;52.448;13.270;2023-01-20T09:15:40;51.95;;;34.08;;
15536;SDS011;7870;52.448;13.270;2023-01-20T09:18:07;45.72;;;32.03;;
15536;SDS011;7870;52.448;13.270;2023-01-20T09:20:34;47.15;;;30.70;;
15536;SDS011;7870;52.448;13.270;2023-01-20T09:23:00;46.20;;;30.95;;
15536;SDS011;7870;52.448;13.270;2023-01-20T09:25:28;45.83;;;31.85;;
15536;SDS011;7870;52.448;13.270;2023-01-20T09:27:55;46.83;;;32.08;;
15536;SDS011;7870;52.448;13.270;2023-01-20T09:30:25;41.22;;;28.05;;
15536;SDS011;7870;52.448;13.270;2023-01-20T09:32:52;46.40;;;29.85;;
15536;SDS011;7870;52.448;13.270;2023-01-20T09:35:21;45.70;;;30.27;;
15536;SDS011;7870;52.448;13.270;2023-01-20T09:37:47;49.15;;;31.83;;
15536;SDS011;7870;52.448;13.270;2023-01-20T09:43:50;50.88;;;33.53;;
15536;SDS011;7870;52.448;13.270;2023-01-20T09:49:03;41.78;;;29.15;;
15536;SDS011;7870;52.448;13.270;2023-01-20T09:55:00;47.85;;;31.60;;
15536;SDS011;7870;52.448;13.270;2023-01-20T09:57:30;49.92;;;32.47;;
15536;SDS011;7870;52.448;13.270;2023-01-20T10:00:00;42.13;;;30.25;;
15536;SDS011;7870;52.448;13.270;2023-01-20T10:02:33;46.30;;;31.55;;
15536;SDS011;7870;52.448;13.270;2023-01-20T10:05:06;43.00;;;30.38;;
15536;SDS011;7870;52.448;13.270;2023-01-20T10:07:41;44.55;;;29.85;;
15536;SDS011;7870;52.448;13.270;2023-01-20T10:13:11;46.58;;;30.88;;
15536;SDS011;7870;52.448;13.270;2023-01-20T10:15:42;41.95;;;28.98;;
15536;SDS011;7870;52.448;13.270;2023-01-20T10:21:08;44.95;;;29.23;;
15536;SDS011;7870;52.448;13.270;2023-01-20T10:23:49;45.58;;;29.42;;
15536;SDS011;7870;52.448;13.270;2023-01-20T10:26:25;36.78;;;28.63;;
15536;SDS011;7870;52.448;13.270;2023-01-20T10:28:59;41.58;;;29.17;;
15536;SDS011;7870;52.448;13.270;2023-01-20T10:31:28;41.10;;;29.10;;
15536;SDS011;7870;52.448;13.270;2023-01-20T10:34:14;39.53;;;28.10;;
15536;SDS011;7870;52.448;13.270;2023-01-20T10:36:45;41.20;;;28.38;;
15536;SDS011;7870;52.448;13.270;2023-01-20T10:42:10;44.67;;;29.83;;
15536;SDS011;7870;52.448;13.270;2023-01-20T10:44:38;44.05;;;29.00;;
15536;SDS011;7870;52.448;13.270;2023-01-20T10:47:23;44.92;;;31.77;;
15536;SDS011;7870;52.448;13.270;2023-01-20T10:55:38;37.92;;;26.45;;
15536;SDS011;7870;52.448;13.270;2023-01-20T10:58:21;38.05;;;26.52;;
15536;SDS011;7870;52.448;13.270;2023-01-20T11:00:50;41.33;;;28.40;;
15536;SDS011;7870;52.448;13.270;2023-01-20T11:03:17;41.92;;;28.02;;
15536;SDS011;7870;52.448;13.270;2023-01-20T11:05:45;38.55;;;25.30;;
15536;SDS011;7870;52.448;13.270;2023-01-20T11:08:17;33.97;;;26.20;;
15536;SDS011;7870;52.448;13.270;2023-01-20T11:10:46;42.47;;;29.13;;
15536;SDS011;7870;52.448;13.270;2023-01-20T11:13:15;42.33;;;29.58;;
15536;SDS011;7870;52.448;13.270;2023-01-20T11:15:43;43.38;;;29.33;;
15536;SDS011;7870;52.448;13.270;2023-01-20T11:20:45;42.10;;;27.95;;
15536;SDS011;7870;52.448;13.270;2023-01-20T11:23:57;37.10;;;25.92;;
15536;SDS011;7870;52.448;13.270;2023-01-20T11:26:05;30.05;;;23.27;;
15536;SDS011;7870;52.448;13.270;2023-01-20T11:28:43;33.58;;;23.88;;
15536;SDS011;7870;52.448;13.270;2023-01-20T11:31:32;37.88;;;26.30;;
15536;SDS011;7870;52.448;13.270;2023-01-20T11:34:02;38.83;;;26.13;;
15536;SDS011;7870;52.448;13.270;2023-01-20T11:36:41;39.03;;;27.70;;
15536;SDS011;7870;52.448;13.270;2023-01-20T11:39:28;41.22;;;27.52;;
15536;SDS011;7870;52.448;13.270;2023-01-20T11:42:09;37.45;;;27.05;;
15536;SDS011;7870;52.448;13.270;2023-01-20T11:44:42;43.53;;;28.00;;
15536;SDS011;7870;52.448;13.270;2023-01-20T11:47:15;41.13;;;25.60;;
15536;SDS011;7870;52.448;13.270;2023-01-20T11:52:35;32.78;;;23.13;;
15536;SDS011;7870;52.448;13.270;2023-01-20T11:57:56;38.45;;;26.90;;
15536;SDS011;7870;52.448;13.270;2023-01-20T12:00:32;38.35;;;24.95;;
15536;SDS011;7870;52.448;13.270;2023-01-20T12:06:02;31.25;;;22.83;;
15536;SDS011;7870;52.448;13.270;2023-01-20T12:08:52;34.80;;;25.10;;
15536;SDS011;7870;52.448;13.270;2023-01-20T12:11:34;36.42;;;23.48;;
15536;SDS011;7870;52.448;13.270;2023-01-20T12:22:47;29.60;;;22.60;;
15536;SDS011;7870;52.448;13.270;2023-01-20T12:25:20;29.27;;;22.75;;
15536;SDS011;7870;52.448;13.270;2023-01-20T12:27:50;29.40;;;22.60;;
15536;SDS011;7870;52.448;13.270;2023-01-20T12:30:25;32.20;;;23.48;;
15536;SDS011;7870;52.448;13.270;2023-01-20T12:32:57;30.95;;;21.30;;
15536;SDS011;7870;52.448;13.270;2023-01-20T12:35:25;36.63;;;25.20;;
15536;SDS011;7870;52.448;13.270;2023-01-20T12:38:02;33.17;;;23.52;;
15536;SDS011;7870;52.448;13.270;2023-01-20T12:40:44;30.92;;;23.95;;
15536;SDS011;7870;52.448;13.270;2023-01-20T12:46:04;40.30;;;25.33;;
15536;SDS011;7870;52.448;13.270;2023-01-20T12:54:17;34.45;;;22.98;;
15536;SDS011;7870;52.448;13.270;2023-01-20T12:57:07;37.17;;;24.73;;
15536;SDS011;7870;52.448;13.270;2023-01-20T13:00:09;33.47;;;24.67;;
15536;SDS011;7870;52.448;13.270;2023-01-20T13:05:48;32.25;;;22.55;;
15536;SDS011;7870;52.448;13.270;2023-01-20T13:08:49;33.10;;;23.30;;
15536;SDS011;7870;52.448;13.270;2023-01-20T13:11:30;30.83;;;21.50;;
15536;SDS011;7870;52.448;13.270;2023-01-20T13:17:19;31.15;;;22.17;;
15536;SDS011;7870;52.448;13.270;2023-01-20T13:19:52;31.27;;;23.35;;
15536;SDS011;7870;52.448;13.270;2023-01-20T13:22:22;32.85;;;23.75;;
15536;SDS011;7870;52.448;13.270;2023-01-20T13:24:53;34.65;;;23.73;;
15536;SDS011;7870;52.448;13.270;2023-01-20T13:27:43;32.08;;;21.85;;
15536;SDS011;7870;52.448;13.270;2023-01-20T13:30:09;33.38;;;22.58;;
15536;SDS011;7870;52.448;13.270;2023-01-20T13:36:00;36.38;;;23.88;;
15536;SDS011;7870;52.448;13.270;2023-01-20T13:38:39;39.78;;;24.05;;
15536;SDS011;7870;52.448;13.270;2023-01-20T13:41:07;36.13;;;24.70;;
15536;SDS011;7870;52.448;13.270;2023-01-20T13:43:35;34.88;;;25.02;;
15536;SDS011;7870;52.448;13.270;2023-01-20T13:48:43;34.00;;;22.85;;
15536;SDS011;7870;52.448;13.270;2023-01-20T13:51:48;27.13;;;20.38;;
15536;SDS011;7870;52.448;13.270;2023-01-20T13:59:45;33.72;;;23.40;;
15536;SDS011;7870;52.448;13.270;2023-01-20T14:02:23;34.38;;;22.45;;
15536;SDS011;7870;52.448;13.270;2023-01-20T14:04:54;34.55;;;24.27;;
15536;SDS011;7870;52.448;13.270;2023-01-20T14:07:24;30.05;;;22.25;;
15536;SDS011;7870;52.448;13.270;2023-01-20T14:09:55;33.78;;;22.30;;
15536;SDS011;7870;52.448;13.270;2023-01-20T14:12:23;32.15;;;23.00;;
15536;SDS011;7870;52.448;13.270;2023-01-20T14:14:50;34.28;;;22.92;;
15536;SDS011;7870;52.448;13.270;2023-01-20T14:17:19;34.88;;;22.33;;
15536;SDS011;7870;52.448;13.270;2023-01-20T14:19:54;33.13;;;22.33;;
15536;SDS011;7870;52.448;13.270;2023-01-20T14:22:22;28.95;;;22.20;;
15536;SDS011;7870;52.448;13.270;2023-01-20T14:24:50;30.45;;;22.17;;
15536;SDS011;7870;52.448;13.270;2023-01-20T14:29:53;30.90;;;23.50;;
15536;SDS011;7870;52.448;13.270;2023-01-20T14:32:31;29.75;;;22.48;;
15536;SDS011;7870;52.448;13.270;2023-01-20T14:34:59;31.60;;;21.92;;
15536;SDS011;7870;52.448;13.270;2023-01-20T14:42:53;31.92;;;21.60;;
15536;SDS011;7870;52.448;13.270;2023-01-20T14:45:24;32.35;;;22.67;;
15536;SDS011;7870;52.448;13.270;2023-01-20T14:47:52;33.33;;;22.40;;
15536;SDS011;7870;52.448;13.270;2023-01-20T14:50:19;32.97;;;23.25;;
15536;SDS011;7870;52.448;13.270;2023-01-20T14:52:46;33.40;;;21.67;;
15536;SDS011;7870;52.448;13.270;2023-01-20T14:55:29;28.98;;;21.42;;
15536;SDS011;7870;52.448;13.270;2023-01-20T14:57:56;33.08;;;22.63;;
15536;SDS011;7870;52.448;13.270;2023-01-20T15:00:30;27.85;;;21.65;;
15536;SDS011;7870;52.448;13.270;2023-01-20T15:03:10;36.15;;;23.35;;
15536;SDS011;7870;52.448;13.270;2023-01-20T15:05:41;37.30;;;23.25;;
15536;SDS011;7870;52.448;13.270;2023-01-20T15:08:23;35.47;;;24.88;;
15536;SDS011;7870;52.448;13.270;2023-01-20T15:16:22;36.95;;;23.60;;
15536;SDS011;7870;52.448;13.270;2023-01-20T15:21:38;33.17;;;22.17;;
15536;SDS011;7870;52.448;13.270;2023-01-20T15:26:56;37.65;;;23.02;;
15536;SDS011;7870;52.448;13.270;2023-01-20T15:29:25;30.67;;;21.58;;
15536;SDS011;7870;52.448;13.270;2023-01-20T15:31:54;30.27;;;22.02;;
15536;SDS011;7870;52.448;13.270;2023-01-20T15:34:22;30.65;;;22.58;;
15536;SDS011;7870;52.448;13.270;2023-01-20T15:36:49;33.08;;;22.40;;
15536;SDS011;7870;52.448;13.270;2023-01-20T15:39:18;30.80;;;23.15;;
15536;SDS011;7870;52.448;13.270;2023-01-20T15:41:45;35.25;;;21.83;;
15536;SDS011;7870;52.448;13.270;2023-01-20T15:44:14;33.00;;;23.63;;
15536;SDS011;7870;52.448;13.270;2023-01-20T15:46:40;39.13;;;23.95;;
15536;SDS011;7870;52.448;13.270;2023-01-20T15:49:10;33.72;;;24.23;;
15536;SDS011;7870;52.448;13.270;2023-01-20T15:51:38;37.17;;;24.42;;
15536;SDS011;7870;52.448;13.270;2023-01-20T15:54:04;35.08;;;25.10;;
15536;SDS011;7870;52.448;13.270;2023-01-20T15:56:34;36.95;;;25.17;;
15536;SDS011;7870;52.448;13.270;2023-01-20T15:59:14;40.97;;;25.70;;
15536;SDS011;7870;52.448;13.270;2023-01-20T16:01:41;40.38;;;27.25;;
15536;SDS011;7870;52.448;13.270;2023-01-20T16:04:12;36.38;;;26.42;;
15536;SDS011;7870;52.448;13.270;2023-01-20T16:06:39;35.65;;;26.13;;
15536;SDS011;7870;52.448;13.270;2023-01-20T16:09:20;39.15;;;26.45;;
15536;SDS011;7870;52.448;13.270;2023-01-20T16:11:50;38.45;;;26.58;;
15536;SDS011;7870;52.448;13.270;2023-01-20T16:14:17;47.40;;;28.40;;
15536;SDS011;7870;52.448;13.270;2023-01-20T16:16:43;42.83;;;27.23;;
15536;SDS011;7870;52.448;13.270;2023-01-20T16:19:13;44.42;;;28.05;;
15536;SDS011;7870;52.448;13.270;2023-01-20T16:21:40;39.42;;;25.58;;
15536;SDS011;7870;52.448;13.270;2023-01-20T16:24:10;40.10;;;26.52;;
15536;SDS011;7870;52.448;13.270;2023-01-20T16:26:37;42.38;;;26.23;;
15536;SDS011;7870;52.448;13.270;2023-01-20T16:29:04;45.03;;;27.02;;
15536;SDS011;7870;52.448;13.270;2023-01-20T16:31:30;43.38;;;26.52;;
15536;SDS011;7870;52.448;13.270;2023-01-20T16:33:58;42.38;;;25.30;;
15536;SDS011;7870;52.448;13.270;2023-01-20T16:36:25;40.03;;;25.83;;
15536;SDS011;7870;52.448;13.270;2023-01-20T16:38:51;39.38;;;27.67;;
15536;SDS011;7870;52.448;13.270;2023-01-20T16:41:19;45.78;;;28.83;;